FW5259 Weather Reports


Display with metric or nautical units.
time (UTC)temp
F
wind
direction
speed
MPH
gust
MPH
rain 1hr
in
rain 24hr
in
rain mn
in
humidity
%
barometer
mb
20210123054024 36 108 0.0 0.0 0.00 0.28 0.00 91 1000.3
20210123034031 38 128 0.0 0.0 0.00 0.28 0.00 93 1002.5
20210123024041 38 158 0.0 2.0 0.00 0.28 0.00 93 1003.1
20210123014029 38 60 0.0 0.0 0.00 0.28 0.00 94 1003.7
20210123002028 37 146 0.0 1.0 0.00 0.28 0.00 94 1003.3
20210122232053 35 89 0.0 0.0 0.00 0.32 0.00 93 1003.4
20210122221033 35 90 0.0 0.0 0.00 0.32 0.32 93 1003.4
20210122205525 36 99 0.0 0.0 0.00 0.33 0.32 93 1003.1
20210122201539 35 167 0.0 0.0 0.00 0.33 0.32 92 1003.0
20210122201045 35 166 0.0 0.0 0.00 0.33 0.32 92 1002.9
20210122195052 35 279 0.0 0.0 0.00 0.33 0.32 92 1002.5
20210122191034 36 278 0.0 0.0 0.00 0.33 0.32 92 1002.3
20210122190110 36 277 0.0 0.0 0.00 0.33 0.32 91 1002.3
20210122180141 38 275 0.0 0.0 0.00 0.35 0.32 92 1001.6
20210122173522 38 250 0.0 0.0 0.00 0.38 0.32 92 1001.4
20210122173042 38 295 0.0 2.0 0.00 0.38 0.32 92 1001.3
20210122163036 38 286 0.0 5.0 0.00 0.39 0.32 93 999.8
20210122162032 38 326 0.0 2.0 0.00 0.39 0.32 93 999.5
20210122161616 38 300 0.0 3.0 0.00 0.39 0.32 93 999.4
20210122155019 38 314 0.0 5.0 0.00 0.39 0.32 93 998.8
20210122154528 38 308 0.0 3.0 0.00 0.39 0.32 93 998.8
20210122154059 37 311 0.0 10.0 0.00 0.39 0.32 93 998.6
20210122153540 37 292 2.0 10.0 0.01 0.39 0.32 93 998.5
20210122153058 37 265 2.0 8.0 0.01 0.39 0.32 92 998.5
20210122152548 37 266 0.0 3.0 0.01 0.39 0.32 92 998.3
20210122152103 37 284 0.0 8.0 0.02 0.39 0.32 92 998.1
20210122151018 37 298 0.0 3.0 0.02 0.39 0.32 92 997.9
20210122141020 38 304 5.0 15.0 0.04 0.37 0.30 90 996.2
20210122131540 42 288 1.0 15.0 0.06 0.33 0.26 92 993.7
20210122131031 43 263 0.0 11.0 0.06 0.33 0.26 91 993.7
20210122124530 44 219 0.0 0.0 0.04 0.31 0.24 93 992.8
20210122114559 45 275 0.0 0.0 0.01 0.27 0.20 91 992.9
20210122105523 45 296 0.0 0.0 0.03 0.26 0.19 91 993.0
20210122104539 46 106 0.0 0.0 0.04 0.26 0.19 91 992.9
20210122104049 46 106 0.0 0.0 0.05 0.25 0.18 91 993.1
20210122101538 46 135 0.0 0.0 0.08 0.24 0.17 91 992.9
20210122101057 46 135 0.0 0.0 0.09 0.24 0.17 91 992.9
20210122100129 46 141 0.0 0.0 0.11 0.24 0.17 90 992.8
20210122095543 46 141 0.0 0.0 0.11 0.23 0.16 90 992.8
20210122094023 46 101 0.0 0.0 0.09 0.20 0.13 90 992.9
20210122084052 47 135 0.0 3.0 0.01 0.12 0.04 86 991.9
20210122074040 48 103 0.0 3.0 0.00 0.11 0.03 83 992.1
20210122064035 47 117 0.0 9.0 0.00 0.11 0.03 84 992.4